Time;durP1;ratioP1;P1;durP2;ratioP2;P2;SDS_P1;SDS_P2;PMS_P1;PMS_P2;Temp;Humidity;BMP_temperature;BMP_pressure;BME280_temperature;BME280_humidity;BME280_pressure;Samples;Min_cycle;Max_cycle;Signal;HPM_P1;HPM_P2
2023/06/30 00:01:49;;;;;;;5.80;4.30;;;;;;;16.10;100.00;100605.55;106943;1248;62112;-79
2023/06/30 00:04:19;;;;;;;5.50;4.10;;;;;;;16.07;100.00;100604.27;107060;1249;60865;-77
2023/06/30 00:06:51;;;;;;;5.20;4.30;;;;;;;16.05;100.00;100605.53;106948;1248;68936;-80
2023/06/30 00:09:21;;;;;;;8.90;4.30;;;;;;;16.00;100.00;100606.48;106762;1248;72658;-78
2023/06/30 00:11:52;;;;;;;6.80;4.60;;;;;;;15.98;100.00;100608.14;106983;1257;59561;-79
2023/06/30 00:14:22;;;;;;;5.40;4.30;;;;;;;16.01;100.00;100607.45;107090;1248;57419;-79
2023/06/30 00:16:51;;;;;;;5.50;4.10;;;;;;;15.99;100.00;100614.55;106958;1257;62192;-79
2023/06/30 00:19:20;;;;;;;7.10;4.20;;;;;;;15.97;100.00;100613.69;107069;1257;70870;-78
2023/06/30 00:21:52;;;;;;;5.00;4.10;;;;;;;15.93;100.00;100613.52;106990;1249;70247;-78
2023/06/30 00:24:21;;;;;;;6.30;4.80;;;;;;;15.92;100.00;100616.71;107062;1256;74157;-79
2023/06/30 00:26:50;;;;;;;6.60;4.00;;;;;;;15.96;100.00;100613.27;106869;1248;62029;-78
2023/06/30 00:29:19;;;;;;;5.00;3.80;;;;;;;15.93;100.00;100609.33;107029;1248;57610;-78
2023/06/30 00:31:48;;;;;;;6.60;3.90;;;;;;;15.89;100.00;100607.18;107058;1248;63393;-78
2023/06/30 00:34:17;;;;;;;7.30;4.20;;;;;;;15.86;100.00;100606.98;107066;1248;69669;-77
2023/06/30 00:36:47;;;;;;;5.80;4.00;;;;;;;15.79;100.00;100606.08;107079;1248;59796;-77
2023/06/30 00:39:16;;;;;;;4.90;3.90;;;;;;;15.71;100.00;100604.92;107049;1244;73912;-77
2023/06/30 00:41:44;;;;;;;6.00;4.00;;;;;;;15.66;100.00;100607.73;107073;1249;62509;-76
2023/06/30 00:44:13;;;;;;;5.70;4.40;;;;;;;15.60;100.00;100606.95;107119;1248;57579;-76
2023/06/30 00:46:42;;;;;;;7.20;4.60;;;;;;;15.55;100.00;100603.45;107028;1244;63012;-76
2023/06/30 00:49:11;;;;;;;5.70;4.10;;;;;;;15.49;100.00;100600.48;106974;1245;61644;-76
2023/06/30 00:51:41;;;;;;;6.50;4.30;;;;;;;15.44;100.00;100601.11;106912;1257;69704;-78
2023/06/30 00:54:10;;;;;;;9.60;4.60;;;;;;;15.40;100.00;100599.26;107014;1248;62991;-77
2023/06/30 00:56:39;;;;;;;6.80;5.00;;;;;;;15.35;100.00;100600.92;107142;1248;59094;-78
2023/06/30 00:59:08;;;;;;;5.90;4.60;;;;;;;15.31;100.00;100603.10;107021;1252;57577;-77
2023/06/30 01:01:46;;;;;;;8.30;4.60;;;;;;;15.35;100.00;100603.73;107083;1248;63326;-78
2023/06/30 01:04:44;;;;;;;7.40;4.30;;;;;;;15.34;100.00;100599.80;107166;1248;62044;-78
2023/06/30 01:07:44;;;;;;;6.30;4.40;;;;;;;15.28;100.00;100602.50;107181;1254;70543;-79
2023/06/30 01:10:17;;;;;;;7.50;4.50;;;;;;;15.31;100.00;100602.16;106879;1251;74291;-77
2023/06/30 01:12:47;;;;;;;5.70;4.70;;;;;;;15.41;100.00;100603.82;107091;1244;59205;-78
2023/06/30 01:15:18;;;;;;;6.10;4.10;;;;;;;15.42;100.00;100601.04;107037;1257;57432;-79
2023/06/30 01:17:53;;;;;;;9.20;4.40;;;;;;;15.37;100.00;100603.38;106951;1245;72807;-78
2023/06/30 01:20:23;;;;;;;4.60;4.20;;;;;;;15.29;100.00;100601.80;107217;1257;62267;-78
2023/06/30 01:23:04;;;;;;;5.70;3.70;;;;;;;15.23;100.00;100603.85;107028;1251;61051;-81
2023/06/30 01:25:34;;;;;;;6.40;4.00;;;;;;;15.21;100.00;100610.86;106992;1248;62499;-80
2023/06/30 01:28:03;;;;;;;6.50;3.70;;;;;;;15.16;100.00;100613.05;107046;1249;62880;-79
2023/06/30 01:30:33;;;;;;;5.70;4.00;;;;;;;15.10;100.00;100608.69;107036;1249;58984;-81
2023/06/30 01:33:02;;;;;;;5.10;4.10;;;;;;;15.05;100.00;100608.08;107044;1248;74064;-80
2023/06/30 01:35:32;;;;;;;5.80;4.10;;;;;;;15.04;100.00;100605.23;106940;1257;71692;-81
2023/06/30 01:38:02;;;;;;;8.10;4.40;;;;;;;15.01;100.00;100606.59;107207;1254;60010;-80
2023/06/30 01:40:32;;;;;;;7.50;4.00;;;;;;;14.95;100.00;100604.99;106906;1247;72698;-81
2023/06/30 01:43:01;;;;;;;5.30;4.00;;;;;;;14.88;100.00;100603.37;107215;1248;58977;-81
2023/06/30 01:45:31;;;;;;;5.40;3.90;;;;;;;14.81;100.00;100605.41;107180;1248;59249;-80
2023/06/30 01:48:00;;;;;;;7.10;4.30;;;;;;;14.77;100.00;100601.73;107227;1247;71937;-81
2023/06/30 01:50:31;;;;;;;5.20;3.80;;;;;;;14.78;100.00;100598.35;107210;1246;62471;-81
2023/06/30 01:53:00;;;;;;;7.40;4.20;;;;;;;14.81;100.00;100595.83;106975;1248;60058;-82
2023/06/30 01:55:29;;;;;;;5.40;4.20;;;;;;;14.90;100.00;100601.67;107208;1248;62598;-82
2023/06/30 01:57:58;;;;;;;5.40;4.10;;;;;;;14.87;100.00;100601.39;107235;1255;57820;-82
2023/06/30 02:00:27;;;;;;;6.60;4.40;;;;;;;14.93;100.00;100599.80;107248;1248;59279;-81
2023/06/30 02:02:57;;;;;;;7.60;4.80;;;;;;;14.92;100.00;100601.80;107284;1257;62853;-80
2023/06/30 02:05:26;;;;;;;6.70;4.10;;;;;;;15.00;100.00;100605.29;107268;1245;72115;-79
2023/06/30 02:07:56;;;;;;;5.90;4.30;;;;;;;14.95;100.00;100607.46;107190;1247;60433;-79
2023/06/30 02:10:25;;;;;;;7.30;4.00;;;;;;;14.92;100.00;100605.99;108278;1248;62758;-80
2023/06/30 02:12:55;;;;;;;5.30;4.50;;;;;;;14.84;100.00;100609.91;107846;1248;57911;-80
2023/06/30 02:15:24;;;;;;;6.70;4.10;;;;;;;14.73;100.00;100620.06;107339;1249;60450;-81
2023/06/30 02:17:55;;;;;;;9.10;4.80;;;;;;;14.61;100.00;100614.09;107356;1249;73930;-79
2023/06/30 02:20:24;;;;;;;5.70;4.40;;;;;;;14.48;100.00;100615.06;108119;1248;70081;-76
2023/06/30 02:22:58;;;;;;;8.20;4.80;;;;;;;14.43;100.00;100612.50;108356;1248;70551;-76
2023/06/30 02:25:28;;;;;;;6.00;4.10;;;;;;;14.40;100.00;100614.37;108578;1247;74495;-75
2023/06/30 02:27:58;;;;;;;6.20;4.30;;;;;;;14.34;100.00;100615.63;108531;1248;61335;-76
2023/06/30 02:30:27;;;;;;;7.80;4.80;;;;;;;14.29;100.00;100618.48;108436;1247;58054;-76
2023/06/30 02:32:58;;;;;;;6.60;4.80;;;;;;;14.26;100.00;100622.52;108351;1247;72738;-76
2023/06/30 02:35:28;;;;;;;6.50;4.10;;;;;;;14.27;100.00;100625.33;107705;1248;61410;-78
2023/06/30 02:37:57;;;;;;;6.90;5.10;;;;;;;14.30;100.00;100624.23;107316;1257;69469;-77
2023/06/30 02:40:26;;;;;;;6.80;5.00;;;;;;;14.34;100.00;100621.22;107247;1248;63261;-77
2023/06/30 02:42:55;;;;;;;8.00;4.80;;;;;;;14.49;100.00;100617.48;107287;1248;58763;-77
2023/06/30 02:45:24;;;;;;;8.20;5.60;;;;;;;14.63;100.00;100618.52;107256;1248;58990;-79
2023/06/30 02:47:53;;;;;;;5.40;4.20;;;;;;;14.73;100.00;100615.96;107149;1248;63000;-77
2023/06/30 02:50:30;;;;;;;7.20;5.20;;;;;;;14.76;100.00;100619.40;107151;1255;71445;-78
2023/06/30 02:53:00;;;;;;;7.00;4.80;;;;;;;14.87;100.00;100614.36;107063;1247;70980;-78
2023/06/30 02:55:30;;;;;;;5.20;4.30;;;;;;;15.01;100.00;100617.05;106947;1256;74205;-79
2023/06/30 02:57:59;;;;;;;10.90;4.60;;;;;;;15.11;100.00;100613.48;107260;1247;58929;-78
2023/06/30 03:00:28;;;;;;;6.20;4.70;;;;;;;15.20;100.00;100610.27;107189;1255;60465;-77
2023/06/30 03:02:57;;;;;;;6.60;4.40;;;;;;;15.22;100.00;100607.45;107173;1257;62863;-77
2023/06/30 03:05:27;;;;;;;8.30;4.60;;;;;;;15.25;100.00;100608.73;107117;1255;73150;-77
2023/06/30 03:07:56;;;;;;;10.40;5.50;;;;;;;15.29;100.00;100608.53;107115;1248;60501;-76
2023/06/30 03:10:27;;;;;;;11.40;5.50;;;;;;;15.35;100.00;100611.26;107066;1248;74054;-77
2023/06/30 03:12:56;;;;;;;11.10;5.40;;;;;;;15.38;100.00;100610.83;107049;1248;59019;-76
2023/06/30 03:15:25;;;;;;;7.40;5.50;;;;;;;15.43;100.00;100610.14;107026;1248;59122;-77
2023/06/30 03:17:55;;;;;;;7.00;4.50;;;;;;;15.54;100.00;100607.88;107100;1246;64096;-77
2023/06/30 03:20:24;;;;;;;6.20;4.30;;;;;;;15.58;100.00;100609.48;107096;1248;72394;-76
2023/06/30 03:22:54;;;;;;;8.70;4.90;;;;;;;15.55;100.00;100608.55;107136;1244;60524;-77
2023/06/30 03:25:22;;;;;;;7.20;5.20;;;;;;;15.51;100.00;100609.59;107113;1249;73086;-77
2023/06/30 03:27:51;;;;;;;9.90;5.10;;;;;;;15.49;100.00;100614.16;107162;1247;62916;-76
2023/06/30 03:30:21;;;;;;;9.00;5.40;;;;;;;15.49;100.00;100610.84;107169;1249;58905;-77
2023/06/30 03:32:50;;;;;;;9.10;5.90;;;;;;;15.59;100.00;100610.77;107444;1251;71655;-76
2023/06/30 03:35:19;;;;;;;8.60;5.70;;;;;;;15.74;100.00;100609.05;107764;1244;62500;-77
2023/06/30 03:37:48;;;;;;;12.80;6.00;;;;;;;15.93;100.00;100609.96;108319;1244;59906;-77
2023/06/30 03:40:17;;;;;;;6.20;4.50;;;;;;;16.04;100.00;100607.15;107642;1254;64791;-77
2023/06/30 03:42:46;;;;;;;9.00;5.30;;;;;;;16.09;100.00;100605.27;107034;1249;59061;-77
2023/06/30 03:45:15;;;;;;;10.30;5.30;;;;;;;16.15;100.00;100605.18;107255;1249;59033;-77
2023/06/30 03:47:44;;;;;;;5.00;3.90;;;;;;;16.26;100.00;100604.00;107857;1246;62319;-76
2023/06/30 03:50:13;;;;;;;7.00;3.90;;;;;;;16.27;100.00;100600.18;107391;1249;60876;-76
2023/06/30 03:52:42;;;;;;;7.80;4.20;;;;;;;16.25;100.00;100594.91;107190;1249;60023;-77
2023/06/30 03:55:11;;;;;;;10.10;4.40;;;;;;;16.29;100.00;100597.73;107331;1246;73087;-78
2023/06/30 03:57:40;;;;;;;13.60;3.90;;;;;;;16.33;100.00;100599.76;107150;1249;62511;-78
2023/06/30 04:00:12;;;;;;;5.80;3.80;;;;;;;16.35;100.00;100598.86;107183;1255;61657;-78
2023/06/30 04:02:41;;;;;;;10.30;4.80;;;;;;;16.43;100.00;100602.23;107294;1250;74342;-77
2023/06/30 04:05:10;;;;;;;8.60;4.60;;;;;;;16.48;100.00;100607.02;107114;1245;72367;-77
2023/06/30 04:07:40;;;;;;;8.00;4.80;;;;;;;16.54;100.00;100607.21;106896;1251;69919;-77
2023/06/30 04:10:09;;;;;;;8.30;4.30;;;;;;;16.60;100.00;100608.99;107100;1248;74061;-76
2023/06/30 04:12:38;;;;;;;9.10;4.20;;;;;;;16.69;100.00;100606.41;107099;1257;57489;-76
2023/06/30 04:15:10;;;;;;;8.20;5.00;;;;;;;16.82;100.00;100603.36;107318;1257;58347;-76
2023/06/30 04:17:39;;;;;;;7.80;4.70;;;;;;;16.96;100.00;100601.05;107140;1255;73921;-76
2023/06/30 04:20:10;;;;;;;6.70;4.50;;;;;;;17.07;100.00;100601.52;107064;1248;62702;-76
2023/06/30 04:22:40;;;;;;;7.30;4.60;;;;;;;17.14;100.00;100597.95;106987;1245;60068;-76
2023/06/30 04:25:11;;;;;;;9.20;5.20;;;;;;;17.14;100.00;100598.40;106963;1256;75336;-76
2023/06/30 04:27:40;;;;;;;8.00;4.70;;;;;;;17.12;100.00;100596.17;107023;1256;63574;-75
2023/06/30 04:30:10;;;;;;;6.50;4.30;;;;;;;17.14;100.00;100597.30;107116;1256;62017;-79
2023/06/30 04:32:39;;;;;;;9.40;5.10;;;;;;;17.24;100.00;100599.83;107255;1255;74282;-79
2023/06/30 04:35:08;;;;;;;8.40;5.40;;;;;;;17.28;100.00;100603.45;107267;1248;61241;-80
2023/06/30 04:37:40;;;;;;;8.40;4.60;;;;;;;17.40;100.00;100600.41;107235;1256;59244;-78
2023/06/30 04:40:10;;;;;;;7.50;5.30;;;;;;;17.54;100.00;100604.27;107125;1245;62464;-78
2023/06/30 04:42:38;;;;;;;7.60;5.60;;;;;;;17.68;100.00;100606.48;107106;1253;62277;-78
2023/06/30 04:45:08;;;;;;;6.80;4.40;;;;;;;17.80;100.00;100604.27;107130;1253;59045;-79
2023/06/30 04:47:36;;;;;;;7.60;4.80;;;;;;;17.87;100.00;100606.34;107038;1249;73421;-78
2023/06/30 04:50:06;;;;;;;6.90;4.60;;;;;;;17.95;100.00;100605.37;107037;1244;62289;-77
2023/06/30 04:52:35;;;;;;;10.40;4.00;;;;;;;18.00;100.00;100607.20;106869;1250;69509;-78
2023/06/30 04:55:04;;;;;;;7.30;4.50;;;;;;;18.10;100.00;100607.83;107000;1245;63394;-78
2023/06/30 04:57:33;;;;;;;13.10;5.90;;;;;;;18.19;100.00;100611.41;107188;1249;59024;-78
2023/06/30 05:00:02;;;;;;;12.80;7.10;;;;;;;18.27;100.00;100613.18;107594;1247;59021;-80
2023/06/30 05:02:31;;;;;;;10.30;6.30;;;;;;;18.35;100.00;100610.07;108661;1249;62198;-80
2023/06/30 05:05:00;;;;;;;10.10;5.80;;;;;;;18.45;100.00;100610.56;108544;1245;60872;-81
2023/06/30 05:07:29;;;;;;;10.10;5.90;;;;;;;18.55;100.00;100605.30;107363;1244;69513;-78
2023/06/30 05:09:58;;;;;;;9.60;5.60;;;;;;;18.57;100.00;100607.71;107103;1255;75417;-77
2023/06/30 05:12:26;;;;;;;8.20;5.60;;;;;;;18.65;100.00;100613.19;107292;1246;62573;-78
2023/06/30 05:14:55;;;;;;;15.20;7.20;;;;;;;18.70;100.00;100612.11;107037;1252;61703;-78
2023/06/30 05:17:24;;;;;;;6.90;5.10;;;;;;;18.74;100.00;100612.36;107294;1245;63796;-78
2023/06/30 05:19:54;;;;;;;7.80;5.80;;;;;;;18.78;100.00;100611.09;107244;1246;72110;-77
2023/06/30 05:22:23;;;;;;;13.50;6.80;;;;;;;18.81;100.00;100613.45;107311;1245;60484;-76
2023/06/30 05:24:52;;;;;;;13.60;8.10;;;;;;;18.88;100.00;100616.56;107173;1246;63269;-75
2023/06/30 05:27:21;;;;;;;13.20;8.40;;;;;;;19.00;100.00;100616.32;107336;1245;61553;-75
2023/06/30 05:29:50;;;;;;;12.50;7.30;;;;;;;19.06;99.80;100614.59;107120;1248;58885;-78
2023/06/30 05:32:19;;;;;;;9.80;5.80;;;;;;;19.13;98.97;100613.27;107289;1255;62438;-80
2023/06/30 05:34:50;;;;;;;7.90;5.80;;;;;;;19.21;97.95;100616.11;107154;1255;61825;-77
2023/06/30 05:37:19;;;;;;;5.70;4.30;;;;;;;19.35;96.69;100615.37;107189;1256;59253;-78
2023/06/30 05:39:48;;;;;;;6.60;4.60;;;;;;;19.49;95.90;100613.02;107278;1248;73466;-70
2023/06/30 05:42:16;;;;;;;9.20;4.70;;;;;;;19.69;94.58;100608.76;107119;1256;61748;-69
2023/06/30 05:44:46;;;;;;;8.00;4.20;;;;;;;19.83;94.19;100607.54;107145;1248;60813;-70
2023/06/30 05:47:15;;;;;;;9.60;5.20;;;;;;;20.00;92.55;100605.79;107112;1246;63415;-73
2023/06/30 05:49:44;;;;;;;7.70;5.00;;;;;;;20.16;92.30;100605.55;107143;1248;60828;-71
2023/06/30 05:52:13;;;;;;;7.90;5.60;;;;;;;20.37;91.22;100606.02;107183;1245;60257;-71
2023/06/30 05:54:42;;;;;;;7.10;4.90;;;;;;;20.53;89.65;100606.98;107057;1245;63239;-71
2023/06/30 05:57:11;;;;;;;12.80;4.90;;;;;;;20.62;89.63;100603.30;107402;1245;58873;-73
2023/06/30 05:59:40;;;;;;;6.60;5.00;;;;;;;20.77;88.84;100608.25;107309;1245;61616;-72
2023/06/30 06:02:08;;;;;;;11.20;4.80;;;;;;;20.90;88.76;100609.91;107264;1245;74420;-71
2023/06/30 06:04:37;;;;;;;7.10;4.30;;;;;;;21.03;88.43;100606.97;107235;1256;63503;-71
2023/06/30 06:07:06;;;;;;;5.50;4.30;;;;;;;21.13;87.47;100606.71;107234;1245;69793;-71
2023/06/30 06:09:35;;;;;;;6.60;4.10;;;;;;;21.17;87.03;100606.32;107297;1257;64054;-71
2023/06/30 06:12:05;;;;;;;4.80;4.00;;;;;;;21.26;85.56;100604.80;107199;1245;59134;-71
2023/06/30 06:14:34;;;;;;;8.00;4.60;;;;;;;21.31;84.41;100600.89;107261;1248;59102;-72
2023/06/30 06:17:03;;;;;;;5.40;4.20;;;;;;;21.35;84.44;100601.94;107214;1244;62966;-71
2023/06/30 06:19:32;;;;;;;6.30;4.30;;;;;;;21.37;84.23;100601.52;107269;1255;61924;-72
2023/06/30 06:22:01;;;;;;;8.60;4.90;;;;;;;21.42;84.03;100597.70;107194;1247;60059;-75
2023/06/30 06:24:30;;;;;;;5.70;4.10;;;;;;;21.52;83.94;100596.16;107289;1257;63253;-75
2023/06/30 06:26:59;;;;;;;5.70;4.00;;;;;;;21.64;83.76;100593.86;107164;1249;59067;-76
2023/06/30 06:29:28;;;;;;;5.70;4.20;;;;;;;21.79;82.37;100596.08;107258;1257;60868;-74
2023/06/30 06:31:57;;;;;;;6.80;4.20;;;;;;;21.84;81.52;100586.84;107172;1245;74143;-74
2023/06/30 06:34:25;;;;;;;7.20;4.60;;;;;;;21.90;82.69;100580.20;107180;1254;71821;-75
2023/06/30 06:36:54;;;;;;;5.20;4.40;;;;;;;22.07;82.44;100583.80;107182;1257;59813;-73
2023/06/30 06:39:23;;;;;;;6.70;4.40;;;;;;;22.22;81.04;100579.01;107244;1245;63289;-73
2023/06/30 06:41:52;;;;;;;8.70;4.70;;;;;;;22.34;81.25;100577.85;107212;1249;58754;-74
2023/06/30 06:44:23;;;;;;;6.90;4.50;;;;;;;22.49;79.93;100579.27;107175;1249;59024;-74
2023/06/30 06:47:49;;;;;;;5.00;4.00;;;;;;;22.62;79.31;100575.80;107186;1246;62977;-74
2023/06/30 06:50:20;;;;;;;6.60;4.50;;;;;;;22.80;76.21;100573.86;107292;1245;61987;-73
2023/06/30 06:52:48;;;;;;;8.60;4.40;;;;;;;23.04;72.92;100570.07;107319;1246;70104;-73
2023/06/30 06:55:17;;;;;;;5.90;4.50;;;;;;;23.21;71.69;100569.14;107307;1257;62854;-72
2023/06/30 06:57:48;;;;;;;6.00;4.10;;;;;;;23.30;70.34;100568.67;107301;1257;58179;-73
2023/06/30 07:00:17;;;;;;;7.40;4.20;;;;;;;23.37;70.59;100561.39;107314;1245;57493;-72
2023/06/30 07:02:46;;;;;;;5.60;4.50;;;;;;;23.55;70.61;100561.67;107252;1248;62233;-70
2023/06/30 07:05:15;;;;;;;7.00;3.70;;;;;;;23.82;68.96;100554.98;107300;1245;60707;-71
2023/06/30 07:07:44;;;;;;;5.50;3.80;;;;;;;23.95;68.58;100556.16;107267;1248;59824;-71
2023/06/30 07:10:13;;;;;;;5.80;4.40;;;;;;;24.06;68.04;100560.95;107276;1245;63172;-72
2023/06/30 07:12:42;;;;;;;6.50;4.50;;;;;;;24.14;68.00;100565.72;107317;1255;57599;-72
2023/06/30 07:15:11;;;;;;;6.90;4.80;;;;;;;24.11;68.08;100571.88;107303;1248;58937;-72
2023/06/30 07:17:40;;;;;;;7.80;4.50;;;;;;;24.08;68.92;100566.53;107293;1246;73171;-72
2023/06/30 07:20:10;;;;;;;7.30;4.30;;;;;;;24.18;68.43;100568.64;107090;1251;62055;-70
2023/06/30 07:22:39;;;;;;;6.80;4.30;;;;;;;24.20;68.27;100570.63;108627;1245;70993;-71
2023/06/30 07:25:09;;;;;;;7.90;5.30;;;;;;;24.23;67.27;100572.84;107171;1249;73991;-72
2023/06/30 07:27:38;;;;;;;8.60;4.90;;;;;;;24.27;66.17;100565.63;107192;1248;61063;-73
2023/06/30 07:30:07;;;;;;;6.70;4.20;;;;;;;24.37;66.61;100569.27;106972;1249;59048;-72
2023/06/30 07:32:36;;;;;;;6.80;4.20;;;;;;;24.39;65.00;100573.79;107054;1257;63028;-72
2023/06/30 07:35:05;;;;;;;5.80;3.80;;;;;;;24.42;64.58;100573.55;107022;1249;60982;-72
2023/06/30 07:37:34;;;;;;;6.10;4.30;;;;;;;24.40;64.45;100572.61;107149;1252;60098;-72
2023/06/30 07:40:03;;;;;;;5.50;4.10;;;;;;;24.43;64.14;100575.56;107057;1248;73024;-72
2023/06/30 07:42:45;;;;;;;5.20;4.00;;;;;;;24.39;63.57;100578.14;107107;1245;58785;-72
2023/06/30 07:45:17;;;;;;;5.70;4.10;;;;;;;24.33;63.33;100583.84;107154;1244;59010;-74
2023/06/30 07:47:47;;;;;;;4.80;3.80;;;;;;;24.21;64.00;100579.70;107046;1251;73318;-73
2023/06/30 07:50:18;;;;;;;5.70;4.50;;;;;;;24.11;63.45;100573.77;107120;1247;62422;-71
2023/06/30 07:52:49;;;;;;;6.10;4.30;;;;;;;24.08;63.94;100576.67;106835;1248;383708;-71
2023/06/30 07:55:18;;;;;;;6.40;4.00;;;;;;;23.98;64.36;100577.23;107250;1256;73459;-73
2023/06/30 07:57:48;;;;;;;6.20;4.40;;;;;;;24.00;64.39;100570.26;107181;1244;58472;-72
2023/06/30 08:00:18;;;;;;;5.30;4.00;;;;;;;24.01;64.79;100568.49;107192;1247;58279;-72
2023/06/30 08:02:47;;;;;;;5.80;4.50;;;;;;;24.14;64.37;100572.67;107257;1246;62778;-73
2023/06/30 08:05:16;;;;;;;5.20;4.10;;;;;;;24.30;63.41;100566.17;107288;1250;71174;-72
2023/06/30 08:07:46;;;;;;;4.60;4.00;;;;;;;24.42;63.05;100569.88;107327;1245;70054;-73
2023/06/30 08:10:21;;;;;;;6.00;4.00;;;;;;;24.43;63.41;100572.27;107243;1252;63233;-72
2023/06/30 08:12:50;;;;;;;7.10;3.90;;;;;;;24.53;62.09;100571.73;107324;1246;58765;-71
2023/06/30 08:15:19;;;;;;;5.70;4.00;;;;;;;24.51;62.50;100567.19;107348;1247;58939;-72
2023/06/30 08:17:48;;;;;;;6.60;4.40;;;;;;;24.61;62.62;100571.13;107370;1246;64006;-71
2023/06/30 08:20:26;;;;;;;4.90;4.00;;;;;;;24.77;61.27;100572.14;107305;1254;72486;-71
2023/06/30 08:22:55;;;;;;;6.00;4.10;;;;;;;24.83;61.56;100573.29;107244;1245;60338;-73
2023/06/30 08:25:25;;;;;;;7.10;3.90;;;;;;;24.96;60.49;100573.10;107172;1245;64252;-73
2023/06/30 08:27:54;;;;;;;6.20;4.30;;;;;;;24.90;60.13;100577.30;107237;1248;60651;-71
2023/06/30 08:30:25;;;;;;;6.10;3.70;;;;;;;24.84;60.96;100569.34;107177;1244;61886;-72
2023/06/30 08:32:54;;;;;;;5.80;4.50;;;;;;;25.08;61.12;100564.13;107134;1245;62677;-70
2023/06/30 08:35:25;;;;;;;5.40;3.90;;;;;;;25.35;59.63;100570.48;107145;1251;63760;-73
2023/06/30 08:37:53;;;;;;;4.60;3.70;;;;;;;25.42;59.07;100572.35;107056;1244;71818;-70
2023/06/30 08:40:29;;;;;;;4.60;3.60;;;;;;;25.33;58.82;100569.67;107166;1245;64550;-71
2023/06/30 08:43:06;;;;;;;8.30;3.80;;;;;;;25.39;59.12;100568.61;107247;1257;58553;-71
2023/06/30 08:45:36;;;;;;;5.40;4.40;;;;;;;25.46;59.14;100568.92;107294;1245;58923;-71
2023/06/30 08:48:06;;;;;;;6.20;4.20;;;;;;;25.53;59.42;100560.34;107298;1246;64451;-72
2023/06/30 08:50:37;;;;;;;5.00;3.70;;;;;;;25.73;59.15;100562.11;107298;1246;62385;-72
2023/06/30 08:53:06;;;;;;;4.70;3.70;;;;;;;25.97;58.95;100563.10;107238;1244;70406;-72
2023/06/30 08:55:35;;;;;;;6.70;4.30;;;;;;;26.06;57.52;100559.50;107204;1248;62843;-72
2023/06/30 08:58:04;;;;;;;6.30;4.00;;;;;;;26.07;57.40;100559.90;107227;1244;58779;-72
2023/06/30 09:00:45;;;;;;;4.90;4.10;;;;;;;26.08;56.61;100555.06;107222;1244;61291;-73
2023/06/30 09:03:14;;;;;;;6.20;3.90;;;;;;;25.95;56.94;100553.89;107310;1244;73723;-71
2023/06/30 09:05:45;;;;;;;5.70;4.10;;;;;;;26.04;56.83;100554.83;107229;1244;62581;-71
2023/06/30 09:08:21;;;;;;;4.80;3.90;;;;;;;26.21;57.25;100548.86;107232;1245;70884;-71
2023/06/30 09:10:52;;;;;;;4.50;4.00;;;;;;;26.27;56.57;100553.46;107279;1246;63964;-71
2023/06/30 09:13:23;;;;;;;4.70;4.00;;;;;;;26.19;56.48;100556.08;107285;1246;60836;-71
2023/06/30 09:15:58;;;;;;;5.90;3.90;;;;;;;26.17;56.34;100550.65;107183;1257;61997;-71
2023/06/30 09:18:28;;;;;;;7.50;4.10;;;;;;;26.22;56.18;100551.31;107305;1245;65367;-72
2023/06/30 09:20:57;;;;;;;4.90;3.00;;;;;;;26.41;55.38;100546.75;107209;1245;62842;-71
2023/06/30 09:23:27;;;;;;;8.10;4.30;;;;;;;26.62;54.25;100540.46;107245;1254;59644;-72
2023/06/30 09:25:56;;;;;;;4.70;3.60;;;;;;;26.65;54.16;100536.28;107139;1247;65126;-71
2023/06/30 09:28:25;;;;;;;5.80;3.80;;;;;;;26.53;54.58;100535.11;107246;1247;59004;-72
2023/06/30 09:30:59;;;;;;;7.40;4.30;;;;;;;26.42;55.52;100539.23;107152;1247;59052;-71
2023/06/30 09:33:28;;;;;;;6.80;4.30;;;;;;;26.53;55.29;100533.99;107199;1247;73291;-74
2023/06/30 09:35:58;;;;;;;5.80;4.00;;;;;;;26.75;54.60;100521.26;107299;1254;62220;-71
2023/06/30 09:38:28;;;;;;;5.90;3.40;;;;;;;26.94;54.13;100530.67;107233;1247;59781;-73
2023/06/30 09:40:57;;;;;;;5.30;3.70;;;;;;;26.84;54.07;100541.09;107179;1257;63081;-72
2023/06/30 09:43:27;;;;;;;4.90;3.50;;;;;;;26.68;54.14;100538.36;107270;1245;61204;-72
2023/06/30 09:45:59;;;;;;;5.70;3.80;;;;;;;26.45;54.58;100532.58;107204;1247;61766;-72
2023/06/30 09:48:38;;;;;;;5.40;4.00;;;;;;;26.38;54.96;100535.56;107256;1251;72884;-71
2023/06/30 09:51:08;;;;;;;4.70;3.50;;;;;;;26.37;55.29;100534.98;107209;1247;60749;-71
2023/06/30 09:53:39;;;;;;;5.30;3.60;;;;;;;26.34;55.63;100527.71;107298;1245;59924;-72
2023/06/30 09:56:08;;;;;;;8.70;3.80;;;;;;;26.39;55.95;100522.60;107262;1257;63345;-71
2023/06/30 09:58:39;;;;;;;6.40;3.70;;;;;;;26.61;55.69;100516.16;107250;1245;59097;-71
2023/06/30 10:01:10;;;;;;;4.60;3.20;;;;;;;26.95;54.38;100510.29;107167;1248;61327;-71
2023/06/30 10:03:51;;;;;;;5.20;3.50;;;;;;;27.24;54.21;100507.51;107128;1250;74362;-71
2023/06/30 10:06:23;;;;;;;5.60;3.50;;;;;;;27.30;54.12;100509.05;107175;1247;61424;-72
2023/06/30 10:08:55;;;;;;;4.50;3.80;;;;;;;27.15;55.25;100516.14;107260;1245;70439;-72
2023/06/30 10:11:28;;;;;;;4.80;3.30;;;;;;;27.14;54.92;100513.92;107122;1245;73917;-72
2023/06/30 10:13:59;;;;;;;5.70;3.40;;;;;;;27.03;53.39;100508.64;107042;1256;61775;-72
2023/06/30 10:16:29;;;;;;;7.80;3.80;;;;;;;26.80;53.95;100512.71;107298;1245;58964;-73
2023/06/30 10:19:01;;;;;;;6.60;3.90;;;;;;;26.77;54.12;100512.09;107220;1247;62218;-72
2023/06/30 10:21:30;;;;;;;;;;;;;;;26.76;54.05;100504.34;107313;1245;61915;-72
2023/06/30 10:24:02;;;;;;;5.30;3.60;;;;;;;26.62;54.26;100506.70;107313;1246;59242;-71
2023/06/30 10:26:36;;;;;;;4.90;3.40;;;;;;;26.35;54.56;100504.09;107314;1254;62683;-72
2023/06/30 10:29:06;;;;;;;4.20;3.50;;;;;;;26.30;54.69;100499.56;107107;1251;58967;-72
2023/06/30 10:31:42;;;;;;;7.20;3.50;;;;;;;26.57;55.44;100496.59;107232;1249;60433;-73
2023/06/30 10:34:20;;;;;;;5.30;3.60;;;;;;;27.08;55.20;100483.61;107272;1248;63447;-71
2023/06/30 10:36:49;;;;;;;5.30;3.50;;;;;;;27.28;53.46;100479.15;107284;1248;61671;-71
2023/06/30 10:39:18;;;;;;;5.90;3.30;;;;;;;27.23;53.00;100478.94;107285;1245;60075;-71
2023/06/30 10:41:48;;;;;;;4.60;3.50;;;;;;;27.35;52.11;100483.52;107164;1248;62698;-72
2023/06/30 10:44:20;;;;;;;5.10;3.50;;;;;;;27.12;52.13;100478.63;107269;1248;58604;-70
2023/06/30 10:46:53;;;;;;;5.30;3.40;;;;;;;26.91;52.80;100476.77;107225;1257;57766;-72
2023/06/30 10:49:42;;;;;;;4.20;3.40;;;;;;;26.67;53.44;100484.48;107119;1247;74173;-73
2023/06/30 10:52:25;;;;;;;7.50;3.70;;;;;;;26.75;53.78;100473.73;107186;1256;61651;-72
2023/06/30 10:54:54;;;;;;;4.60;3.50;;;;;;;27.28;54.29;100465.56;107275;1247;70433;-71
2023/06/30 10:57:25;;;;;;;6.70;3.80;;;;;;;27.89;52.71;100463.54;107212;1247;64812;-72
2023/06/30 11:00:14;;;;;;;4.20;3.20;;;;;;;28.19;51.36;100467.54;107045;1247;59109;-71
2023/06/30 11:02:54;;;;;;;4.10;3.30;;;;;;;28.22;51.40;100470.79;107145;1247;59085;-71
2023/06/30 11:05:35;;;;;;;5.20;3.60;;;;;;;27.89;51.50;100471.95;107096;1248;72702;-71
2023/06/30 11:08:21;;;;;;;7.80;3.60;;;;;;;27.57;52.86;100469.40;107149;1244;70884;-72
2023/06/30 11:10:50;;;;;;;8.00;4.00;;;;;;;27.74;53.02;100465.56;107063;1257;59674;-70
2023/06/30 11:13:36;;;;;;;8.80;3.60;;;;;;;27.53;53.24;100459.84;107151;1257;63340;-70
2023/06/30 11:16:05;;;;;;;7.20;3.50;;;;;;;27.27;53.76;100449.84;107031;1248;58753;-70
2023/06/30 11:18:34;;;;;;;9.30;4.00;;;;;;;27.64;53.61;100445.91;107060;1249;58949;-73
2023/06/30 11:21:06;;;;;;;7.20;3.70;;;;;;;28.52;51.88;100449.77;107148;1247;74463;-70
2023/06/30 11:23:39;;;;;;;6.30;3.70;;;;;;;29.07;49.85;100449.36;107170;1248;73843;-73
2023/06/30 11:26:16;;;;;;;7.80;3.50;;;;;;;29.32;49.16;100445.89;107061;1247;60350;-72
2023/06/30 11:28:48;;;;;;;5.20;3.60;;;;;;;29.36;48.99;100444.61;107191;1244;64687;-72